createdAt,value
2022-12-10T00:01:50.548Z,19.93
2022-12-10T00:04:19.528Z,20.80
2022-12-10T00:06:49.285Z,18.80
2022-12-10T00:09:19.178Z,19.37
2022-12-10T00:11:47.827Z,20.50
2022-12-10T00:14:16.999Z,18.73
2022-12-10T00:16:47.021Z,17.70
2022-12-10T00:19:15.729Z,18.10
2022-12-10T00:21:45.292Z,18.77
2022-12-10T00:24:13.898Z,18.80
2022-12-10T00:26:42.901Z,18.57
2022-12-10T00:29:12.988Z,19.27
2022-12-10T00:31:41.922Z,18.97
2022-12-10T00:34:12.837Z,18.17
2022-12-10T00:36:43.692Z,18.90
2022-12-10T00:39:13.415Z,19.10
2022-12-10T00:41:42.105Z,19.63
2022-12-10T00:44:10.756Z,17.40
2022-12-10T00:46:39.525Z,18.43
2022-12-10T00:49:08.307Z,19.60
2022-12-10T00:51:38.480Z,18.03
2022-12-10T00:54:07.577Z,18.87
2022-12-10T00:56:36.522Z,19.00
2022-12-10T00:59:05.759Z,17.33
2022-12-10T01:01:36.505Z,18.40
2022-12-10T01:04:06.852Z,18.17
2022-12-10T01:06:38.657Z,18.27
2022-12-10T01:09:08.995Z,17.33
2022-12-10T01:11:39.398Z,19.03
2022-12-10T01:14:09.175Z,16.50
2022-12-10T01:16:38.466Z,17.77
2022-12-10T01:19:07.447Z,18.50
2022-12-10T01:21:36.209Z,18.53
2022-12-10T01:24:06.916Z,17.37
2022-12-10T01:26:36.571Z,17.80
2022-12-10T01:29:06.004Z,19.20
2022-12-10T01:31:36.563Z,19.80
2022-12-10T01:34:06.467Z,18.37
2022-12-10T01:36:36.852Z,17.90
2022-12-10T01:39:09.014Z,19.30
2022-12-10T01:41:39.660Z,18.17
2022-12-10T01:44:41.695Z,18.10
2022-12-10T01:47:11.145Z,17.90
2022-12-10T01:49:41.593Z,18.57
2022-12-10T01:52:12.436Z,17.87
2022-12-10T01:54:44.707Z,18.27
2022-12-10T01:57:15.528Z,18.40
2022-12-10T01:59:47.718Z,18.80
2022-12-10T02:02:22.399Z,18.90
2022-12-10T02:05:00.361Z,19.20
2022-12-10T02:07:35.057Z,18.43
2022-12-10T02:10:11.353Z,18.73
2022-12-10T02:12:46.409Z,18.83
2022-12-10T02:15:17.743Z,17.90
2022-12-10T02:17:49.984Z,17.63
2022-12-10T02:20:21.675Z,18.30
2022-12-10T02:22:52.923Z,16.60
2022-12-10T02:25:28.774Z,18.20
2022-12-10T02:28:03.527Z,17.83
2022-12-10T02:30:34.875Z,17.23
2022-12-10T02:33:05.494Z,16.47
2022-12-10T02:35:35.547Z,17.40
2022-12-10T02:38:09.940Z,17.17
2022-12-10T02:40:40.851Z,17.90
2022-12-10T02:43:10.258Z,16.30
2022-12-10T02:45:40.955Z,17.73
2022-12-10T02:48:09.833Z,17.73
2022-12-10T02:50:38.478Z,16.50
2022-12-10T02:53:07.093Z,16.40
2022-12-10T02:55:47.361Z,17.73
2022-12-10T02:58:21.337Z,17.53
2022-12-10T03:00:57.640Z,17.47
2022-12-10T03:03:35.581Z,16.83
2022-12-10T03:06:11.037Z,17.30
2022-12-10T03:08:42.769Z,17.20
2022-12-10T03:11:13.929Z,18.40
2022-12-10T03:13:47.503Z,16.43
2022-12-10T03:16:18.784Z,18.10
2022-12-10T03:18:51.382Z,18.07
2022-12-10T03:21:20.677Z,16.87
2022-12-10T03:23:49.880Z,16.53
2022-12-10T03:26:18.737Z,18.07
2022-12-10T03:28:49.174Z,16.53
2022-12-10T03:31:20.523Z,17.63
2022-12-10T03:33:49.800Z,18.10
2022-12-10T03:36:19.503Z,16.53
2022-12-10T03:38:48.083Z,16.67
2022-12-10T03:41:16.712Z,16.30
2022-12-10T03:43:55.735Z,18.90
2022-12-10T03:46:27.373Z,18.07
2022-12-10T03:49:00.809Z,17.87
2022-12-10T03:51:29.514Z,17.63
2022-12-10T03:53:58.154Z,18.10
2022-12-10T03:56:26.747Z,18.50
2022-12-10T03:58:55.400Z,17.47
2022-12-10T04:01:24.022Z,17.90
2022-12-10T04:03:54.003Z,18.23
2022-12-10T04:06:22.660Z,16.70
2022-12-10T04:08:58.290Z,17.67
2022-12-10T04:11:27.699Z,16.83
2022-12-10T04:14:13.663Z,17.77
2022-12-10T04:16:42.376Z,16.27
2022-12-10T04:19:13.879Z,17.53
2022-12-10T04:22:01.427Z,17.70
2022-12-10T04:24:48.914Z,17.27
2022-12-10T04:27:19.965Z,15.63
2022-12-10T04:29:48.911Z,16.53
2022-12-10T04:32:17.787Z,15.93
2022-12-10T04:34:47.836Z,16.90
2022-12-10T04:37:17.280Z,15.97
2022-12-10T04:39:46.219Z,15.93
2022-12-10T04:42:15.123Z,16.03
2022-12-10T04:44:43.692Z,15.47
2022-12-10T04:47:13.054Z,15.27
2022-12-10T04:49:42.039Z,15.67
2022-12-10T04:52:14.092Z,15.03
2022-12-10T04:54:43.151Z,15.70
2022-12-10T04:57:12.958Z,16.83
2022-12-10T04:59:41.617Z,15.10
2022-12-10T05:02:10.312Z,15.70
2022-12-10T05:04:39.004Z,15.63
2022-12-10T05:07:07.639Z,17.00
2022-12-10T05:09:37.552Z,14.27
2022-12-10T05:12:06.429Z,15.43
2022-12-10T05:14:35.027Z,15.23
2022-12-10T05:17:03.669Z,15.83
2022-12-10T05:19:32.331Z,15.00
2022-12-10T05:22:18.430Z,14.47
2022-12-10T05:24:48.364Z,14.53
2022-12-10T05:27:16.981Z,15.40
2022-12-10T05:29:45.609Z,14.33
2022-12-10T05:32:14.183Z,14.20
2022-12-10T05:34:42.761Z,15.00
2022-12-10T05:37:11.360Z,14.93
2022-12-10T05:39:40.005Z,15.97
2022-12-10T05:42:10.009Z,14.70
2022-12-10T05:44:38.737Z,14.50
2022-12-10T05:47:07.323Z,15.20
2022-12-10T05:49:35.925Z,15.20
2022-12-10T05:52:04.755Z,15.47
2022-12-10T05:54:33.379Z,15.03
2022-12-10T05:57:02.000Z,14.83
2022-12-10T05:59:32.510Z,14.60
2022-12-10T06:02:01.103Z,15.53
2022-12-10T06:04:29.750Z,14.10
2022-12-10T06:06:58.367Z,15.47
2022-12-10T06:09:26.942Z,15.43
2022-12-10T06:11:55.538Z,14.73
2022-12-10T06:14:24.162Z,14.33
2022-12-10T06:16:54.117Z,15.20
2022-12-10T06:19:22.731Z,14.83
2022-12-10T06:21:51.393Z,14.80
2022-12-10T06:24:20.001Z,14.10
2022-12-10T06:26:50.561Z,14.20
2022-12-10T06:29:22.589Z,14.57
2022-12-10T06:31:51.169Z,14.53
2022-12-10T06:34:21.143Z,14.93
2022-12-10T06:36:49.753Z,14.33
2022-12-10T06:39:18.393Z,14.13
2022-12-10T06:41:47.041Z,14.10
2022-12-10T06:44:15.701Z,14.13
2022-12-10T06:46:44.645Z,14.07
2022-12-10T06:49:13.290Z,14.20
2022-12-10T06:51:43.317Z,14.70
2022-12-10T06:54:11.954Z,15.40
2022-12-10T06:56:40.581Z,14.63
2022-12-10T06:59:09.164Z,15.00
2022-12-10T07:01:40.070Z,15.50
2022-12-10T07:04:09.659Z,15.07
2022-12-10T07:06:38.264Z,15.10
2022-12-10T07:09:08.249Z,14.87
2022-12-10T07:11:37.184Z,15.87
2022-12-10T07:14:05.927Z,14.43
2022-12-10T07:16:35.035Z,14.87
2022-12-10T07:19:04.442Z,14.07
2022-12-10T07:21:34.331Z,14.80
2022-12-10T07:24:04.762Z,15.70
2022-12-10T07:26:36.695Z,16.53
2022-12-10T07:29:06.575Z,14.70
2022-12-10T07:31:35.597Z,16.53
2022-12-10T07:34:04.475Z,14.60
2022-12-10T07:36:33.097Z,15.77
2022-12-10T07:39:01.722Z,15.70
2022-12-10T07:41:31.115Z,14.63
2022-12-10T07:44:01.159Z,15.80
2022-12-10T07:46:32.414Z,14.00
2022-12-10T07:49:02.544Z,15.40
2022-12-10T07:51:31.771Z,15.00
2022-12-10T07:54:00.348Z,15.53
2022-12-10T07:56:29.034Z,15.60
2022-12-10T07:58:57.658Z,15.57
2022-12-10T08:01:28.215Z,15.43
2022-12-10T08:03:58.464Z,14.53
2022-12-10T08:06:28.540Z,14.90
2022-12-10T08:08:57.937Z,15.67
2022-12-10T08:11:27.660Z,15.23
2022-12-10T08:13:57.811Z,14.87
2022-12-10T08:16:29.757Z,15.07
2022-12-10T08:18:59.644Z,15.53
2022-12-10T08:21:29.962Z,16.20
2022-12-10T08:23:58.641Z,15.07
2022-12-10T08:26:29.033Z,15.63
2022-12-10T08:28:58.679Z,14.70
2022-12-10T08:31:33.016Z,15.87
2022-12-10T08:34:05.662Z,14.97
2022-12-10T08:36:34.290Z,15.90
2022-12-10T08:39:02.927Z,15.10
2022-12-10T08:41:31.657Z,14.50
2022-12-10T08:44:00.339Z,15.30
2022-12-10T08:46:30.518Z,14.63
2022-12-10T08:48:59.300Z,14.30
2022-12-10T08:51:28.784Z,14.97
2022-12-10T08:53:57.684Z,14.47
2022-12-10T08:56:26.381Z,15.00
2022-12-10T08:58:55.027Z,14.80
2022-12-10T09:01:23.827Z,13.40
2022-12-10T09:03:54.936Z,14.00
2022-12-10T09:06:25.973Z,14.30
2022-12-10T09:08:55.119Z,14.13
2022-12-10T09:11:25.934Z,14.93
2022-12-10T09:13:55.167Z,14.23
2022-12-10T09:16:26.284Z,14.00
2022-12-10T09:18:56.282Z,14.87
2022-12-10T09:21:24.876Z,14.60
2022-12-10T09:23:53.832Z,14.20
2022-12-10T09:26:22.912Z,14.93
2022-12-10T09:28:52.159Z,15.47
2022-12-10T09:31:21.961Z,14.33
2022-12-10T09:33:51.907Z,14.90
2022-12-10T09:36:23.109Z,14.67
2022-12-10T09:38:53.079Z,14.07
2022-12-10T09:41:43.323Z,13.50
2022-12-10T09:44:15.219Z,14.23
2022-12-10T09:46:50.693Z,13.60
2022-12-10T09:49:27.099Z,14.00
2022-12-10T09:51:58.704Z,13.50
2022-12-10T09:54:28.920Z,13.43
2022-12-10T09:56:59.243Z,12.80
2022-12-10T09:59:34.836Z,14.30
2022-12-10T10:02:06.006Z,14.00
2022-12-10T10:04:34.673Z,14.10
2022-12-10T10:07:06.694Z,14.50
2022-12-10T10:09:40.791Z,14.53
2022-12-10T10:12:13.124Z,14.47
2022-12-10T10:14:41.964Z,15.30
2022-12-10T10:17:13.145Z,15.17
2022-12-10T10:19:42.301Z,15.23
2022-12-10T10:22:12.788Z,15.67
2022-12-10T10:24:43.622Z,16.07
2022-12-10T10:27:16.230Z,16.60
2022-12-10T10:29:46.062Z,16.10
2022-12-10T10:32:19.954Z,14.47
2022-12-10T10:34:54.291Z,16.07
2022-12-10T10:37:28.056Z,15.90
2022-12-10T10:39:57.014Z,17.20
2022-12-10T10:42:30.635Z,15.83
2022-12-10T10:44:59.268Z,15.77
2022-12-10T10:47:34.496Z,15.73
2022-12-10T10:50:04.879Z,20.07
2022-12-10T10:52:39.078Z,16.53
2022-12-10T10:55:10.900Z,16.60
2022-12-10T10:57:39.600Z,16.10
2022-12-10T11:00:19.667Z,15.40
2022-12-10T11:02:48.512Z,16.20
2022-12-10T11:05:19.406Z,15.37
2022-12-10T11:07:49.359Z,16.00
2022-12-10T11:10:20.875Z,14.83
2022-12-10T11:12:56.519Z,15.30
2022-12-10T11:15:34.835Z,14.77
2022-12-10T11:18:04.652Z,15.17
2022-12-10T11:20:41.973Z,15.17
2022-12-10T11:23:16.278Z,14.80
2022-12-10T11:25:49.622Z,14.27
2022-12-10T11:28:30.184Z,15.73
2022-12-10T11:31:07.649Z,14.90
2022-12-10T11:33:42.345Z,14.20
2022-12-10T11:36:23.693Z,14.30
2022-12-10T11:38:58.798Z,15.00
2022-12-10T11:41:31.754Z,17.37
2022-12-10T11:44:14.494Z,15.20
2022-12-10T11:47:01.146Z,14.40
2022-12-10T11:49:38.074Z,15.00
2022-12-10T11:52:15.304Z,14.20
2022-12-10T11:55:04.055Z,15.10
2022-12-10T11:57:42.258Z,16.07
2022-12-10T12:00:20.966Z,15.37
2022-12-10T12:03:17.265Z,15.33
2022-12-10T12:06:00.826Z,15.33
2022-12-10T12:08:44.522Z,15.27
2022-12-10T12:11:24.584Z,13.60
2022-12-10T12:13:56.986Z,21.40
2022-12-10T12:16:29.838Z,14.63
2022-12-10T12:19:01.591Z,13.50
2022-12-10T12:21:30.337Z,13.97
2022-12-10T12:24:04.531Z,15.00
2022-12-10T12:26:39.184Z,14.70
2022-12-10T12:29:15.677Z,14.80
2022-12-10T12:31:48.733Z,15.17
2022-12-10T12:34:21.119Z,14.77
2022-12-10T12:36:50.380Z,15.90
2022-12-10T12:39:26.103Z,13.97
2022-12-10T12:42:03.618Z,14.60
2022-12-10T12:44:38.516Z,13.10
2022-12-10T12:47:21.010Z,12.87
2022-12-10T12:49:50.516Z,14.00
2022-12-10T12:52:30.384Z,13.80
2022-12-10T12:55:01.903Z,13.83
2022-12-10T12:57:36.495Z,11.93
2022-12-10T13:00:07.785Z,13.43
2022-12-10T13:02:48.770Z,13.43
2022-12-10T13:05:23.263Z,12.80
2022-12-10T13:08:39.995Z,14.10
2022-12-10T13:11:33.493Z,13.60
2022-12-10T13:14:32.543Z,12.63
2022-12-10T13:17:13.871Z,13.70
2022-12-10T13:19:43.203Z,14.30
2022-12-10T13:22:13.167Z,13.67
2022-12-10T13:25:05.398Z,15.10
2022-12-10T13:27:35.940Z,16.10
2022-12-10T13:30:28.353Z,13.77
2022-12-10T13:33:07.425Z,13.03
2022-12-10T13:35:45.290Z,12.40
2022-12-10T13:38:22.266Z,13.30
2022-12-10T13:41:34.082Z,13.40
2022-12-10T13:44:20.480Z,12.83
2022-12-10T13:46:56.272Z,13.27
2022-12-10T13:49:26.792Z,13.07
2022-12-10T13:51:59.370Z,11.70
2022-12-10T13:55:18.196Z,13.80
2022-12-10T13:58:34.909Z,12.33
2022-12-10T14:01:14.077Z,12.70
2022-12-10T14:03:53.701Z,12.90
2022-12-10T14:06:23.026Z,14.07
2022-12-10T14:09:01.435Z,14.93
2022-12-10T14:11:37.386Z,13.67
2022-12-10T14:14:07.651Z,14.23
2022-12-10T14:16:37.796Z,14.17
2022-12-10T14:19:08.936Z,14.57
2022-12-10T14:21:39.860Z,14.57
2022-12-10T14:24:27.569Z,14.17
2022-12-10T14:27:00.041Z,15.37
2022-12-10T14:29:29.606Z,14.47
2022-12-10T14:31:58.949Z,14.37
2022-12-10T14:34:30.396Z,15.00
2022-12-10T14:37:00.034Z,17.17
2022-12-10T14:39:30.043Z,15.97
2022-12-10T14:42:00.358Z,15.60
2022-12-10T14:44:29.676Z,16.47
2022-12-10T14:47:06.580Z,15.53
2022-12-10T14:49:43.475Z,16.43
2022-12-10T14:52:14.344Z,15.90
2022-12-10T14:54:43.625Z,15.60
2022-12-10T14:57:18.841Z,17.43
2022-12-10T14:59:50.552Z,16.47
2022-12-10T15:02:23.593Z,15.40
2022-12-10T15:04:54.105Z,15.40
2022-12-10T15:07:25.021Z,16.45
2022-12-10T15:09:55.037Z,21.08
2022-12-10T15:12:30.736Z,18.50
2022-12-10T15:15:04.482Z,15.87
2022-12-10T15:17:39.165Z,16.37
2022-12-10T15:20:24.074Z,15.47
2022-12-10T15:22:53.071Z,16.33
2022-12-10T15:25:24.919Z,16.50
2022-12-10T15:27:58.688Z,16.10
2022-12-10T15:30:37.442Z,15.23
2022-12-10T15:33:18.406Z,18.63
2022-12-10T15:35:48.439Z,19.70
2022-12-10T15:38:17.647Z,17.47
2022-12-10T15:40:46.282Z,15.87
2022-12-10T15:43:25.769Z,16.03
2022-12-10T15:45:54.420Z,14.97
2022-12-10T15:48:24.828Z,16.30
2022-12-10T15:50:54.898Z,15.93
2022-12-10T15:53:32.256Z,15.93
2022-12-10T15:56:04.575Z,15.83
2022-12-10T15:58:33.182Z,15.03
2022-12-10T16:01:02.275Z,14.63
2022-12-10T16:03:31.246Z,15.40
2022-12-10T16:06:01.253Z,16.17
2022-12-10T16:08:32.834Z,15.10
2022-12-10T16:11:05.279Z,15.57
2022-12-10T16:13:35.404Z,15.67
2022-12-10T16:16:07.866Z,16.83
2022-12-10T16:18:37.577Z,16.17
2022-12-10T16:21:08.805Z,15.70
2022-12-10T16:23:38.105Z,15.90
2022-12-10T16:26:14.726Z,14.87
2022-12-10T16:28:43.838Z,15.33
2022-12-10T16:31:14.317Z,15.40
2022-12-10T16:33:43.019Z,15.17
2022-12-10T16:36:13.453Z,15.20
2022-12-10T16:38:42.517Z,14.80
2022-12-10T16:41:17.253Z,14.30
2022-12-10T16:43:46.000Z,15.17
2022-12-10T16:46:15.098Z,15.87
2022-12-10T16:48:43.794Z,14.53
2022-12-10T16:51:20.772Z,15.80
2022-12-10T16:53:49.424Z,15.20
2022-12-10T16:56:18.571Z,15.20
2022-12-10T16:58:47.484Z,16.30
2022-12-10T17:01:19.746Z,18.30
2022-12-10T17:03:48.617Z,14.63
2022-12-10T17:06:19.885Z,14.80
2022-12-10T17:08:48.951Z,15.57
2022-12-10T17:11:37.850Z,14.67
2022-12-10T17:14:07.893Z,14.47
2022-12-10T17:16:36.628Z,14.00
2022-12-10T17:19:05.289Z,12.43
2022-12-10T17:21:38.607Z,14.27
2022-12-10T17:24:08.277Z,13.33
2022-12-10T17:26:39.368Z,12.47
2022-12-10T17:29:12.909Z,14.17
2022-12-10T17:31:41.638Z,13.17
2022-12-10T17:34:11.336Z,12.43
2022-12-10T17:36:41.864Z,13.80
2022-12-10T17:39:18.678Z,12.80
2022-12-10T17:41:50.927Z,15.47
2022-12-10T17:44:19.856Z,13.33
2022-12-10T17:46:48.468Z,13.40
2022-12-10T17:49:18.430Z,13.80
2022-12-10T17:51:48.631Z,13.63
2022-12-10T17:54:17.289Z,15.80
2022-12-10T17:56:47.052Z,14.60
2022-12-10T17:59:16.247Z,17.60
2022-12-10T18:01:48.402Z,15.80
2022-12-10T18:04:17.891Z,13.90
2022-12-10T18:06:48.253Z,14.13
2022-12-10T18:09:17.230Z,13.50
2022-12-10T18:11:46.265Z,14.17
2022-12-10T18:14:15.224Z,13.73
2022-12-10T18:16:44.565Z,14.17
2022-12-10T18:19:15.198Z,13.90
2022-12-10T18:21:43.996Z,14.33
2022-12-10T18:24:15.563Z,14.60
2022-12-10T18:26:45.027Z,12.90
2022-12-10T18:29:14.941Z,13.57
2022-12-10T18:31:45.010Z,14.50
2022-12-10T18:34:15.892Z,13.77
2022-12-10T18:36:46.921Z,14.30
2022-12-10T18:39:19.611Z,14.17
2022-12-10T18:41:48.710Z,13.13
2022-12-10T18:44:18.338Z,13.60
2022-12-10T18:46:46.971Z,13.37
2022-12-10T18:49:16.697Z,13.77
2022-12-10T18:51:45.609Z,13.80
2022-12-10T18:54:14.224Z,13.80
2022-12-10T18:56:49.954Z,13.00
2022-12-10T18:59:26.571Z,14.60
2022-12-10T19:01:55.322Z,14.00
2022-12-10T19:04:23.947Z,13.47
2022-12-10T19:06:52.545Z,13.27
2022-12-10T19:09:21.249Z,15.13
2022-12-10T19:11:52.093Z,14.10
2022-12-10T19:14:23.428Z,13.53
2022-12-10T19:16:52.129Z,13.33
2022-12-10T19:19:20.838Z,14.20
2022-12-10T19:21:50.017Z,13.50
2022-12-10T19:24:18.678Z,14.10
2022-12-10T19:26:47.489Z,15.10
2022-12-10T19:29:19.053Z,15.23
2022-12-10T19:31:48.175Z,14.50
2022-12-10T19:34:18.370Z,14.27
2022-12-10T19:36:49.268Z,13.87
2022-12-10T19:39:19.011Z,14.50
2022-12-10T19:41:47.832Z,13.40
2022-12-10T19:44:17.854Z,14.07
2022-12-10T19:46:46.636Z,14.20
2022-12-10T19:49:17.107Z,13.73
2022-12-10T19:51:45.988Z,14.37
2022-12-10T19:54:14.814Z,13.87
2022-12-10T19:56:43.648Z,13.90
2022-12-10T19:59:15.568Z,15.00
2022-12-10T20:01:46.197Z,13.43
2022-12-10T20:04:15.863Z,14.40
2022-12-10T20:06:46.022Z,14.73
2022-12-10T20:09:19.131Z,14.23
2022-12-10T20:11:48.331Z,14.17
2022-12-10T20:14:17.547Z,14.00
2022-12-10T20:16:49.534Z,15.67
2022-12-10T20:19:22.811Z,13.17
2022-12-10T20:21:51.860Z,13.37
2022-12-10T20:24:20.761Z,14.13
2022-12-10T20:26:50.577Z,14.10
2022-12-10T20:29:20.865Z,14.30
2022-12-10T20:31:51.950Z,13.60
2022-12-10T20:34:21.399Z,13.20
2022-12-10T20:36:50.485Z,14.50
2022-12-10T20:39:21.684Z,15.33
2022-12-10T20:41:51.288Z,16.03
2022-12-10T20:44:20.518Z,13.80
2022-12-10T20:46:51.453Z,12.90
2022-12-10T20:49:22.642Z,12.60
2022-12-10T20:51:51.727Z,13.27
2022-12-10T20:54:20.477Z,12.13
2022-12-10T20:56:49.160Z,13.23
2022-12-10T20:59:18.200Z,13.20
2022-12-10T21:01:46.994Z,14.17
2022-12-10T21:04:17.227Z,16.83
2022-12-10T21:06:46.157Z,14.63
2022-12-10T21:09:14.858Z,13.73
2022-12-10T21:11:43.528Z,14.00
2022-12-10T21:14:51.506Z,13.50
2022-12-10T21:17:00.856Z,12.70
2022-12-10T21:19:31.156Z,11.90
2022-12-10T21:21:59.882Z,13.60
2022-12-10T21:24:28.542Z,14.50
2022-12-10T21:26:58.923Z,13.33
2022-12-10T21:29:27.538Z,13.47
2022-12-10T21:31:56.176Z,13.07
2022-12-10T21:34:24.790Z,14.57
2022-12-10T21:36:54.786Z,13.20
2022-12-10T21:39:25.500Z,13.50
2022-12-10T21:42:12.011Z,12.60
2022-12-10T21:44:40.650Z,12.57
2022-12-10T21:47:09.280Z,13.47
2022-12-10T21:49:37.875Z,13.37
2022-12-10T21:52:07.823Z,13.80
2022-12-10T21:54:36.473Z,13.63
2022-12-10T21:57:05.168Z,14.20
2022-12-10T21:59:33.809Z,12.33
2022-12-10T22:02:02.530Z,13.80
2022-12-10T22:04:31.230Z,13.63
2022-12-10T22:06:59.903Z,13.33
2022-12-10T22:09:29.999Z,14.38
2022-12-10T22:11:58.646Z,13.60
2022-12-10T22:14:27.372Z,14.53
2022-12-10T22:16:56.045Z,13.73
2022-12-10T22:19:24.703Z,13.33
2022-12-10T22:21:53.334Z,13.30
2022-12-10T22:24:21.992Z,15.40
2022-12-10T22:26:51.954Z,14.83
2022-12-10T22:29:20.701Z,14.60
2022-12-10T22:31:49.351Z,13.67
2022-12-10T22:34:18.056Z,13.30
2022-12-10T22:36:46.706Z,13.63
2022-12-10T22:39:15.804Z,12.20
2022-12-10T22:41:44.992Z,14.37
2022-12-10T22:44:15.282Z,12.27
2022-12-10T22:46:43.952Z,14.27
2022-12-10T22:49:12.666Z,14.20
2022-12-10T22:51:41.291Z,14.50
2022-12-10T22:54:09.924Z,12.93
2022-12-10T22:56:38.727Z,13.87
2022-12-10T22:59:07.449Z,13.17
2022-12-10T23:01:37.444Z,13.30
2022-12-10T23:04:06.084Z,12.80
2022-12-10T23:06:34.686Z,12.23
2022-12-10T23:09:03.318Z,12.13
2022-12-10T23:11:31.934Z,11.47
2022-12-10T23:14:00.566Z,11.13
2022-12-10T23:16:29.242Z,11.00
2022-12-10T23:18:59.269Z,11.03
2022-12-10T23:21:28.175Z,11.03
2022-12-10T23:23:56.823Z,9.90
2022-12-10T23:26:25.519Z,11.47
2022-12-10T23:28:54.164Z,12.37
2022-12-10T23:31:22.868Z,11.20
2022-12-10T23:33:51.586Z,10.30
2022-12-10T23:36:21.515Z,11.43
2022-12-10T23:38:50.188Z,11.47
2022-12-10T23:41:18.836Z,10.10
2022-12-10T23:43:47.419Z,11.13
2022-12-10T23:46:16.156Z,11.90
2022-12-10T23:48:45.186Z,14.63
2022-12-10T23:51:13.828Z,11.00
2022-12-10T23:53:43.848Z,11.00
2022-12-10T23:56:16.428Z,11.53
2022-12-10T23:58:45.258Z,10.90
